sensor_id;sensor_type;location;lat;lon;timestamp;pressure;altitude;pressure_sealevel;temperature;humidity
74921;BME280;63483;47.384;8.860;2023-04-24T00:01:46;93819.00;;;9.67;50.10
74921;BME280;63483;47.384;8.860;2023-04-24T00:04:11;93807.31;;;9.63;50.26
74921;BME280;63483;47.384;8.860;2023-04-24T00:06:39;93809.91;;;9.63;49.77
74921;BME280;63483;47.384;8.860;2023-04-24T00:09:08;93814.75;;;9.60;49.59
74921;BME280;63483;47.384;8.860;2023-04-24T00:11:35;93817.16;;;9.61;49.90
74921;BME280;63483;47.384;8.860;2023-04-24T00:14:00;93816.13;;;9.62;49.74
74921;BME280;63483;47.384;8.860;2023-04-24T00:16:26;93820.75;;;9.60;49.63
74921;BME280;63483;47.384;8.860;2023-04-24T00:18:51;93821.94;;;9.58;49.71
74921;BME280;63483;47.384;8.860;2023-04-24T00:21:21;93823.38;;;9.60;49.89
74921;BME280;63483;47.384;8.860;2023-04-24T00:23:47;93821.56;;;9.61;49.92
74921;BME280;63483;47.384;8.860;2023-04-24T00:26:12;93821.94;;;9.58;49.78
74921;BME280;63483;47.384;8.860;2023-04-24T00:28:37;93825.38;;;9.58;49.86
74921;BME280;63483;47.384;8.860;2023-04-24T00:31:03;93821.53;;;9.54;49.70
74921;BME280;63483;47.384;8.860;2023-04-24T00:33:28;93830.75;;;9.50;49.61
74921;BME280;63483;47.384;8.860;2023-04-24T00:35:54;93830.75;;;9.50;49.89
74921;BME280;63483;47.384;8.860;2023-04-24T00:38:19;93830.75;;;9.50;49.95
74921;BME280;63483;47.384;8.860;2023-04-24T00:40:44;93817.50;;;9.51;50.24
74921;BME280;63483;47.384;8.860;2023-04-24T00:43:10;93831.38;;;9.52;50.03
74921;BME280;63483;47.384;8.860;2023-04-24T00:45:37;93816.31;;;9.54;50.03
74921;BME280;63483;47.384;8.860;2023-04-24T00:48:02;93823.97;;;9.56;50.22
74921;BME280;63483;47.384;8.860;2023-04-24T00:50:29;93833.63;;;9.55;50.38
74921;BME280;63483;47.384;8.860;2023-04-24T00:52:55;93827.16;;;9.51;49.63
74921;BME280;63483;47.384;8.860;2023-04-24T00:55:21;93831.53;;;9.44;49.71
74921;BME280;63483;47.384;8.860;2023-04-24T00:57:46;93832.50;;;9.36;49.83
74921;BME280;63483;47.384;8.860;2023-04-24T01:00:14;93822.84;;;9.37;49.72
74921;BME280;63483;47.384;8.860;2023-04-24T01:02:41;93823.38;;;9.25;48.71
74921;BME280;63483;47.384;8.860;2023-04-24T01:05:11;93824.97;;;9.20;48.92
74921;BME280;63483;47.384;8.860;2023-04-24T01:07:37;93829.38;;;9.19;48.82
74921;BME280;63483;47.384;8.860;2023-04-24T01:10:03;93827.38;;;9.21;48.87
74921;BME280;63483;47.384;8.860;2023-04-24T01:12:28;93830.38;;;9.18;48.76
74921;BME280;63483;47.384;8.860;2023-04-24T01:14:54;93838.03;;;9.20;48.83
74921;BME280;63483;47.384;8.860;2023-04-24T01:17:20;93827.59;;;9.20;49.11
74921;BME280;63483;47.384;8.860;2023-04-24T01:19:46;93832.63;;;9.21;49.03
74921;BME280;63483;47.384;8.860;2023-04-24T01:22:15;93833.41;;;9.22;48.96
74921;BME280;63483;47.384;8.860;2023-04-24T01:24:42;93833.81;;;9.25;49.18
74921;BME280;63483;47.384;8.860;2023-04-24T01:27:09;93831.41;;;9.24;49.00
74921;BME280;63483;47.384;8.860;2023-04-24T01:29:35;93835.63;;;9.18;49.20
74921;BME280;63483;47.384;8.860;2023-04-24T01:32:02;93841.47;;;8.98;48.83
74921;BME280;63483;47.384;8.860;2023-04-24T01:34:27;93834.03;;;8.95;49.39
74921;BME280;63483;47.384;8.860;2023-04-24T01:36:53;93838.47;;;9.02;48.97
74921;BME280;63483;47.384;8.860;2023-04-24T01:39:18;93833.06;;;9.03;49.34
74921;BME280;63483;47.384;8.860;2023-04-24T01:41:46;93832.66;;;9.00;49.58
74921;BME280;63483;47.384;8.860;2023-04-24T01:44:11;93826.00;;;8.97;49.58
74921;BME280;63483;47.384;8.860;2023-04-24T01:46:37;93832.03;;;8.97;49.69
74921;BME280;63483;47.384;8.860;2023-04-24T01:49:02;93829.63;;;8.96;49.67
74921;BME280;63483;47.384;8.860;2023-04-24T01:51:28;93827.94;;;8.88;49.59
74921;BME280;63483;47.384;8.860;2023-04-24T01:53:53;93829.19;;;8.92;49.36
74921;BME280;63483;47.384;8.860;2023-04-24T01:56:22;93824.41;;;8.96;49.80
74921;BME280;63483;47.384;8.860;2023-04-24T01:58:49;93821.16;;;8.94;49.69
74921;BME280;63483;47.384;8.860;2023-04-24T02:01:19;93825.78;;;8.92;49.81
74921;BME280;63483;47.384;8.860;2023-04-24T02:03:45;93832.78;;;8.91;49.72
74921;BME280;63483;47.384;8.860;2023-04-24T02:06:10;93822.34;;;8.91;49.80
74921;BME280;63483;47.384;8.860;2023-04-24T02:08:36;93824.34;;;8.89;49.72
74921;BME280;63483;47.384;8.860;2023-04-24T02:11:01;93820.75;;;8.90;49.57
74921;BME280;63483;47.384;8.860;2023-04-24T02:13:27;93820.75;;;8.90;49.48
74921;BME280;63483;47.384;8.860;2023-04-24T02:15:53;93824.72;;;8.86;49.56
74921;BME280;63483;47.384;8.860;2023-04-24T02:18:18;93822.31;;;8.85;49.52
74921;BME280;63483;47.384;8.860;2023-04-24T02:20:44;93823.09;;;8.85;49.36
74921;BME280;63483;47.384;8.860;2023-04-24T02:23:09;93819.88;;;8.83;49.53
74921;BME280;63483;47.384;8.860;2023-04-24T02:25:35;93816.47;;;8.83;49.51
74921;BME280;63483;47.384;8.860;2023-04-24T02:28:00;93820.25;;;8.80;49.60
74921;BME280;63483;47.384;8.860;2023-04-24T02:30:25;93815.84;;;8.80;49.57
74921;BME280;63483;47.384;8.860;2023-04-24T02:32:51;93816.56;;;8.74;49.67
74921;BME280;63483;47.384;8.860;2023-04-24T02:35:16;93818.00;;;8.77;49.52
74921;BME280;63483;47.384;8.860;2023-04-24T02:37:42;93822.22;;;8.78;49.67
74921;BME280;63483;47.384;8.860;2023-04-24T02:40:08;93817.16;;;8.76;49.84
74921;BME280;63483;47.384;8.860;2023-04-24T02:42:33;93810.97;;;8.77;49.54
74921;BME280;63483;47.384;8.860;2023-04-24T02:44:59;93821.25;;;8.79;49.64
74921;BME280;63483;47.384;8.860;2023-04-24T02:47:24;93812.13;;;8.75;49.50
74921;BME280;63483;47.384;8.860;2023-04-24T02:49:49;93813.41;;;8.79;49.67
74921;BME280;63483;47.384;8.860;2023-04-24T02:52:15;93827.47;;;8.78;49.77
74921;BME280;63483;47.384;8.860;2023-04-24T02:54:40;93822.03;;;8.79;49.67
74921;BME280;63483;47.384;8.860;2023-04-24T02:57:05;93813.41;;;8.79;49.59
74921;BME280;63483;47.384;8.860;2023-04-24T02:59:31;93815.38;;;8.77;49.10
74921;BME280;63483;47.384;8.860;2023-04-24T03:01:56;93808.19;;;8.79;49.35
74921;BME280;63483;47.384;8.860;2023-04-24T03:04:22;93805.75;;;8.77;49.60
74921;BME280;63483;47.384;8.860;2023-04-24T03:06:48;93802.47;;;8.69;49.32
74921;BME280;63483;47.384;8.860;2023-04-24T03:09:13;93794.00;;;8.67;49.51
74921;BME280;63483;47.384;8.860;2023-04-24T03:11:39;93793.38;;;8.64;49.66
74921;BME280;63483;47.384;8.860;2023-04-24T03:14:05;93789.97;;;8.64;49.72
74921;BME280;63483;47.384;8.860;2023-04-24T03:16:31;93789.38;;;8.62;49.55
74921;BME280;63483;47.384;8.860;2023-04-24T03:18:56;93787.31;;;8.57;50.02
74921;BME280;63483;47.384;8.860;2023-04-24T03:21:22;93787.66;;;8.54;49.71
74921;BME280;63483;47.384;8.860;2023-04-24T03:23:47;93787.94;;;8.38;49.83
74921;BME280;63483;47.384;8.860;2023-04-24T03:26:12;93784.91;;;8.34;50.20
74921;BME280;63483;47.384;8.860;2023-04-24T03:28:38;93788.94;;;8.37;50.15
74921;BME280;63483;47.384;8.860;2023-04-24T03:31:03;93799.31;;;8.30;49.24
74921;BME280;63483;47.384;8.860;2023-04-24T03:33:29;93805.06;;;8.04;49.96
74921;BME280;63483;47.384;8.860;2023-04-24T03:35:54;93794.63;;;8.04;50.44
74921;BME280;63483;47.384;8.860;2023-04-24T03:38:19;93801.59;;;8.18;50.26
74921;BME280;63483;47.384;8.860;2023-04-24T03:40:45;93810.03;;;8.20;49.94
74921;BME280;63483;47.384;8.860;2023-04-24T03:43:10;93800.84;;;8.24;49.67
74921;BME280;63483;47.384;8.860;2023-04-24T03:45:35;93806.06;;;8.24;49.87
74921;BME280;63483;47.384;8.860;2023-04-24T03:48:01;93805.66;;;8.21;49.66
74921;BME280;63483;47.384;8.860;2023-04-24T03:50:26;93816.88;;;8.21;49.27
74921;BME280;63483;47.384;8.860;2023-04-24T03:52:52;93811.44;;;8.16;49.13
74921;BME280;63483;47.384;8.860;2023-04-24T03:55:17;93813.28;;;8.22;49.22
74921;BME280;63483;47.384;8.860;2023-04-24T03:57:42;93809.31;;;8.26;49.17
74921;BME280;63483;47.384;8.860;2023-04-24T04:00:08;93808.88;;;8.23;48.80
74921;BME280;63483;47.384;8.860;2023-04-24T04:02:34;93806.63;;;8.20;48.98
74921;BME280;63483;47.384;8.860;2023-04-24T04:04:59;93805.19;;;8.17;49.13
74921;BME280;63483;47.384;8.860;2023-04-24T04:07:25;93802.59;;;8.17;48.86
74921;BME280;63483;47.384;8.860;2023-04-24T04:09:50;93811.53;;;8.08;48.39
74921;BME280;63483;47.384;8.860;2023-04-24T04:12:16;93801.84;;;8.02;48.61
74921;BME280;63483;47.384;8.860;2023-04-24T04:14:41;93797.38;;;7.96;48.66
74921;BME280;63483;47.384;8.860;2023-04-24T04:17:06;93800.03;;;8.02;48.48
74921;BME280;63483;47.384;8.860;2023-04-24T04:19:32;93805.97;;;7.96;48.42
74921;BME280;63483;47.384;8.860;2023-04-24T04:21:57;93804.91;;;7.90;48.15
74921;BME280;63483;47.384;8.860;2023-04-24T04:24:23;93811.38;;;7.95;48.55
74921;BME280;63483;47.384;8.860;2023-04-24T04:26:49;93812.63;;;7.99;48.26
74921;BME280;63483;47.384;8.860;2023-04-24T04:29:16;93810.66;;;8.01;48.30
74921;BME280;63483;47.384;8.860;2023-04-24T04:31:41;93816.94;;;8.06;48.11
74921;BME280;63483;47.384;8.860;2023-04-24T04:34:07;93816.00;;;8.14;48.04
74921;BME280;63483;47.384;8.860;2023-04-24T04:36:33;93815.19;;;8.14;47.78
74921;BME280;63483;47.384;8.860;2023-04-24T04:39:02;93822.84;;;8.15;47.84
74921;BME280;63483;47.384;8.860;2023-04-24T04:41:27;93830.66;;;8.15;47.66
74921;BME280;63483;47.384;8.860;2023-04-24T04:43:53;93833.47;;;8.14;47.65
74921;BME280;63483;47.384;8.860;2023-04-24T04:46:18;93836.88;;;8.14;47.87
74921;BME280;63483;47.384;8.860;2023-04-24T04:48:43;93832.91;;;8.18;48.00
74921;BME280;63483;47.384;8.860;2023-04-24T04:51:09;93839.38;;;8.22;47.76
74921;BME280;63483;47.384;8.860;2023-04-24T04:53:35;93840.63;;;8.26;47.41
74921;BME280;63483;47.384;8.860;2023-04-24T04:56:00;93844.22;;;8.25;47.42
74921;BME280;63483;47.384;8.860;2023-04-24T04:58:26;93852.66;;;8.27;47.80
74921;BME280;63483;47.384;8.860;2023-04-24T05:00:51;93858.06;;;8.26;47.66
74921;BME280;63483;47.384;8.860;2023-04-24T05:03:17;93863.72;;;8.30;47.70
74921;BME280;63483;47.384;8.860;2023-04-24T05:05:42;93854.22;;;8.22;47.10
74921;BME280;63483;47.384;8.860;2023-04-24T05:08:08;93866.56;;;8.13;47.21
74921;BME280;63483;47.384;8.860;2023-04-24T05:10:33;93872.03;;;8.18;47.60
74921;BME280;63483;47.384;8.860;2023-04-24T05:12:59;93885.44;;;8.15;47.45
74921;BME280;63483;47.384;8.860;2023-04-24T05:15:24;93889.03;;;8.14;47.29
74921;BME280;63483;47.384;8.860;2023-04-24T05:17:50;93895.63;;;8.10;47.72
74921;BME280;63483;47.384;8.860;2023-04-24T05:20:15;93900.66;;;8.12;47.83
74921;BME280;63483;47.384;8.860;2023-04-24T05:22:41;93905.50;;;8.15;47.85
74921;BME280;63483;47.384;8.860;2023-04-24T05:25:07;93911.00;;;8.05;48.18
74921;BME280;63483;47.384;8.860;2023-04-24T05:27:32;93916.59;;;8.02;48.39
74921;BME280;63483;47.384;8.860;2023-04-24T05:29:58;93919.81;;;8.04;48.66
74921;BME280;63483;47.384;8.860;2023-04-24T05:32:23;93922.72;;;7.94;48.58
74921;BME280;63483;47.384;8.860;2023-04-24T05:34:48;93921.63;;;8.03;48.61
74921;BME280;63483;47.384;8.860;2023-04-24T05:37:14;93927.81;;;8.02;48.78
74921;BME280;63483;47.384;8.860;2023-04-24T05:39:39;93933.84;;;8.03;49.27
74921;BME280;63483;47.384;8.860;2023-04-24T05:42:06;93938.06;;;8.04;49.61
74921;BME280;63483;47.384;8.860;2023-04-24T05:44:31;93942.13;;;8.06;49.56
74921;BME280;63483;47.384;8.860;2023-04-24T05:46:57;93946.34;;;8.07;49.41
74921;BME280;63483;47.384;8.860;2023-04-24T05:49:22;93943.28;;;8.04;49.45
74921;BME280;63483;47.384;8.860;2023-04-24T05:51:48;93951.28;;;8.02;49.82
74921;BME280;63483;47.384;8.860;2023-04-24T05:54:13;93954.72;;;8.03;49.76
74921;BME280;63483;47.384;8.860;2023-04-24T05:56:39;93952.09;;;8.03;49.79
74921;BME280;63483;47.384;8.860;2023-04-24T05:59:04;93953.09;;;8.02;49.93
74921;BME280;63483;47.384;8.860;2023-04-24T06:01:30;93963.06;;;7.83;48.71
74921;BME280;63483;47.384;8.860;2023-04-24T06:03:56;93966.81;;;7.28;46.25
74921;BME280;63483;47.384;8.860;2023-04-24T06:06:22;93965.69;;;6.84;46.06
74921;BME280;63483;47.384;8.860;2023-04-24T06:08:47;93965.38;;;6.56;47.21
74921;BME280;63483;47.384;8.860;2023-04-24T06:11:12;93972.34;;;6.15;45.84
74921;BME280;63483;47.384;8.860;2023-04-24T06:13:38;93979.94;;;5.77;50.38
74921;BME280;63483;47.384;8.860;2023-04-24T06:16:04;93966.94;;;5.77;49.19
74921;BME280;63483;47.384;8.860;2023-04-24T06:18:30;93978.34;;;5.76;55.74
74921;BME280;63483;47.384;8.860;2023-04-24T06:20:55;93980.63;;;5.71;51.19
74921;BME280;63483;47.384;8.860;2023-04-24T06:23:21;93974.06;;;5.92;49.14
74921;BME280;63483;47.384;8.860;2023-04-24T06:25:46;93967.22;;;5.99;47.22
74921;BME280;63483;47.384;8.860;2023-04-24T06:28:12;93965.31;;;5.93;44.95
74921;BME280;63483;47.384;8.860;2023-04-24T06:30:37;93968.50;;;6.03;46.05
74921;BME280;63483;47.384;8.860;2023-04-24T06:33:02;93968.53;;;5.95;44.71
74921;BME280;63483;47.384;8.860;2023-04-24T06:35:28;93971.00;;;5.80;47.10
74921;BME280;63483;47.384;8.860;2023-04-24T06:37:53;93967.44;;;5.73;43.28
74921;BME280;63483;47.384;8.860;2023-04-24T06:40:18;93972.34;;;5.59;43.74
74921;BME280;63483;47.384;8.860;2023-04-24T06:42:44;93966.34;;;5.59;43.67
74921;BME280;63483;47.384;8.860;2023-04-24T06:45:09;93971.34;;;5.69;46.99
74921;BME280;63483;47.384;8.860;2023-04-24T06:47:35;93976.53;;;5.85;46.86
74921;BME280;63483;47.384;8.860;2023-04-24T06:50:01;93976.19;;;5.88;46.60
74921;BME280;63483;47.384;8.860;2023-04-24T06:52:26;93968.38;;;5.96;47.97
74921;BME280;63483;47.384;8.860;2023-04-24T06:54:51;93972.09;;;6.02;47.25
74921;BME280;63483;47.384;8.860;2023-04-24T06:57:17;93972.34;;;6.15;50.03
74921;BME280;63483;47.384;8.860;2023-04-24T06:59:43;93980.47;;;6.21;49.20
74921;BME280;63483;47.384;8.860;2023-04-24T07:02:08;93990.53;;;6.24;51.50
74921;BME280;63483;47.384;8.860;2023-04-24T07:04:33;93974.06;;;6.40;53.60
74921;BME280;63483;47.384;8.860;2023-04-24T07:06:59;93982.53;;;6.65;60.89
74921;BME280;63483;47.384;8.860;2023-04-24T07:09:25;93983.03;;;6.29;50.83
74921;BME280;63483;47.384;8.860;2023-04-24T07:11:51;93991.84;;;6.20;50.84
74921;BME280;63483;47.384;8.860;2023-04-24T07:14:17;93988.53;;;5.94;49.10
74921;BME280;63483;47.384;8.860;2023-04-24T07:16:43;93986.16;;;5.68;49.75
74921;BME280;63483;47.384;8.860;2023-04-24T07:19:08;93987.63;;;5.46;48.83
74921;BME280;63483;47.384;8.860;2023-04-24T07:21:34;93981.59;;;5.70;50.18
74921;BME280;63483;47.384;8.860;2023-04-24T07:23:59;93978.81;;;5.88;52.57
74921;BME280;63483;47.384;8.860;2023-04-24T07:26:26;93984.06;;;6.11;50.80
74921;BME280;63483;47.384;8.860;2023-04-24T07:28:51;93986.13;;;6.24;49.96
74921;BME280;63483;47.384;8.860;2023-04-24T07:31:16;93981.44;;;6.20;50.29
74921;BME280;63483;47.384;8.860;2023-04-24T07:33:42;93989.53;;;6.25;51.27
74921;BME280;63483;47.384;8.860;2023-04-24T07:36:07;93982.22;;;6.68;54.78
74921;BME280;63483;47.384;8.860;2023-04-24T07:38:32;93984.25;;;7.04;53.89
74921;BME280;63483;47.384;8.860;2023-04-24T07:40:58;93980.06;;;7.18;53.82
74921;BME280;63483;47.384;8.860;2023-04-24T07:43:23;93987.88;;;7.41;52.84
74921;BME280;63483;47.384;8.860;2023-04-24T07:45:52;93990.50;;;7.56;52.42
74921;BME280;63483;47.384;8.860;2023-04-24T07:48:17;93989.59;;;7.72;51.62
74921;BME280;63483;47.384;8.860;2023-04-24T07:50:44;94003.34;;;7.81;51.81
74921;BME280;63483;47.384;8.860;2023-04-24T07:53:09;93998.50;;;7.92;51.29
74921;BME280;63483;47.384;8.860;2023-04-24T07:55:35;94014.53;;;8.04;51.19
74921;BME280;63483;47.384;8.860;2023-04-24T07:58:00;94008.41;;;7.97;50.72
74921;BME280;63483;47.384;8.860;2023-04-24T08:00:26;94019.09;;;8.17;50.40
74921;BME280;63483;47.384;8.860;2023-04-24T08:02:51;94021.88;;;8.16;50.25
74921;BME280;63483;47.384;8.860;2023-04-24T08:05:16;94027.38;;;8.06;49.21
74921;BME280;63483;47.384;8.860;2023-04-24T08:07:42;94021.69;;;8.17;48.84
74921;BME280;63483;47.384;8.860;2023-04-24T08:10:10;94028.81;;;8.23;49.63
74921;BME280;63483;47.384;8.860;2023-04-24T08:12:35;94031.06;;;8.12;49.59
74921;BME280;63483;47.384;8.860;2023-04-24T08:15:01;94035.94;;;8.15;49.59
74921;BME280;63483;47.384;8.860;2023-04-24T08:17:26;94036.53;;;8.02;49.75
74921;BME280;63483;47.384;8.860;2023-04-24T08:19:51;94034.38;;;8.20;49.64
74921;BME280;63483;47.384;8.860;2023-04-24T08:22:18;94028.38;;;8.20;49.64
74921;BME280;63483;47.384;8.860;2023-04-24T08:24:43;94014.59;;;8.26;49.57
74921;BME280;63483;47.384;8.860;2023-04-24T08:27:09;94030.25;;;8.41;49.75
74921;BME280;63483;47.384;8.860;2023-04-24T08:29:35;94037.25;;;8.55;49.86
74921;BME280;63483;47.384;8.860;2023-04-24T08:32:01;94095.38;;;8.19;50.23
74921;BME280;63483;47.384;8.860;2023-04-24T08:34:26;94137.44;;;7.32;46.50
74921;BME280;63483;47.384;8.860;2023-04-24T08:36:51;94103.72;;;6.99;46.13
74921;BME280;63483;47.384;8.860;2023-04-24T08:39:17;94116.47;;;6.94;47.15
74921;BME280;63483;47.384;8.860;2023-04-24T08:41:44;94124.06;;;7.03;48.17
74921;BME280;63483;47.384;8.860;2023-04-24T08:44:11;94126.09;;;7.16;48.42
74921;BME280;63483;47.384;8.860;2023-04-24T08:46:39;94117.28;;;7.26;46.92
74921;BME280;63483;47.384;8.860;2023-04-24T08:49:05;94124.84;;;7.35;48.55
74921;BME280;63483;47.384;8.860;2023-04-24T08:51:31;94116.44;;;7.25;49.35
74921;BME280;63483;47.384;8.860;2023-04-24T08:53:57;94120.19;;;7.22;47.99
74921;BME280;63483;47.384;8.860;2023-04-24T08:56:23;94119.50;;;7.05;47.86
74921;BME280;63483;47.384;8.860;2023-04-24T08:58:53;94120.44;;;7.13;47.84
74921;BME280;63483;47.384;8.860;2023-04-24T09:01:19;94124.41;;;7.32;48.50
74921;BME280;63483;47.384;8.860;2023-04-24T09:03:48;94130.19;;;7.42;48.65
74921;BME280;63483;47.384;8.860;2023-04-24T09:06:14;94123.59;;;7.54;48.97
74921;BME280;63483;47.384;8.860;2023-04-24T09:08:40;94134.47;;;7.58;47.97
74921;BME280;63483;47.384;8.860;2023-04-24T09:11:06;94139.19;;;7.31;46.90
74921;BME280;63483;47.384;8.860;2023-04-24T09:13:32;94141.03;;;7.22;48.05
74921;BME280;63483;47.384;8.860;2023-04-24T09:15:57;94129.53;;;7.40;47.73
74921;BME280;63483;47.384;8.860;2023-04-24T09:18:23;94125.63;;;7.44;47.38
74921;BME280;63483;47.384;8.860;2023-04-24T09:21:02;94131.69;;;7.59;47.49
74921;BME280;63483;47.384;8.860;2023-04-24T09:23:29;94131.69;;;7.59;47.36
74921;BME280;63483;47.384;8.860;2023-04-24T09:25:56;94129.41;;;7.65;46.67
74921;BME280;63483;47.384;8.860;2023-04-24T09:28:40;94121.06;;;7.69;47.09
74921;BME280;63483;47.384;8.860;2023-04-24T09:33:35;94117.22;;;7.80;46.62
74921;BME280;63483;47.384;8.860;2023-04-24T09:36:01;94108.66;;;7.95;47.19
74921;BME280;63483;47.384;8.860;2023-04-24T09:38:38;94113.47;;;8.21;48.51
74921;BME280;63483;47.384;8.860;2023-04-24T09:41:08;94115.63;;;8.32;47.83
74921;BME280;63483;47.384;8.860;2023-04-24T09:43:34;94122.22;;;8.43;47.02
74921;BME280;63483;47.384;8.860;2023-04-24T09:46:05;94119.88;;;8.48;46.26
74921;BME280;63483;47.384;8.860;2023-04-24T09:48:35;94118.34;;;8.54;46.24
74921;BME280;63483;47.384;8.860;2023-04-24T09:51:02;94109.00;;;8.59;47.06
74921;BME280;63483;47.384;8.860;2023-04-24T09:53:29;94120.69;;;8.63;46.69
74921;BME280;63483;47.384;8.860;2023-04-24T09:55:55;94119.06;;;8.62;46.37
74921;BME280;63483;47.384;8.860;2023-04-24T09:58:26;94127.00;;;8.69;46.44
74921;BME280;63483;47.384;8.860;2023-04-24T10:00:54;94131.91;;;8.19;44.24
74921;BME280;63483;47.384;8.860;2023-04-24T10:03:20;94127.50;;;8.35;45.35
74921;BME280;63483;47.384;8.860;2023-04-24T10:05:46;94135.16;;;8.51;45.90
74921;BME280;63483;47.384;8.860;2023-04-24T10:08:12;94128.97;;;8.52;47.06
74921;BME280;63483;47.384;8.860;2023-04-24T10:10:43;94129.75;;;8.68;46.87
74921;BME280;63483;47.384;8.860;2023-04-24T10:13:10;94134.13;;;8.60;45.78
74921;BME280;63483;47.384;8.860;2023-04-24T10:15:37;94121.84;;;8.76;44.92
74921;BME280;63483;47.384;8.860;2023-04-24T10:18:04;94128.69;;;8.77;45.64
74921;BME280;63483;47.384;8.860;2023-04-24T10:20:30;94118.25;;;8.77;45.34
74921;BME280;63483;47.384;8.860;2023-04-24T10:22:57;94121.22;;;8.74;44.66
74921;BME280;63483;47.384;8.860;2023-04-24T10:25:24;94145.09;;;8.71;42.00
74921;BME280;63483;47.384;8.860;2023-04-24T10:27:52;94142.38;;;8.49;42.65
74921;BME280;63483;47.384;8.860;2023-04-24T10:30:19;94128.25;;;8.43;43.80
74921;BME280;63483;47.384;8.860;2023-04-24T10:32:44;94120.03;;;8.76;43.61
74921;BME280;63483;47.384;8.860;2023-04-24T10:35:12;94125.75;;;8.80;43.52
74921;BME280;63483;47.384;8.860;2023-04-24T10:37:41;94139.41;;;8.97;43.88
74921;BME280;63483;47.384;8.860;2023-04-24T10:40:08;94127.81;;;9.00;42.68
74921;BME280;63483;47.384;8.860;2023-04-24T10:42:34;94128.22;;;9.03;42.84
74921;BME280;63483;47.384;8.860;2023-04-24T10:45:05;94124.22;;;9.01;42.77
74921;BME280;63483;47.384;8.860;2023-04-24T10:47:39;94131.50;;;9.05;42.64
74921;BME280;63483;47.384;8.860;2023-04-24T10:50:09;94135.19;;;9.11;42.43
74921;BME280;63483;47.384;8.860;2023-04-24T10:52:45;94145.44;;;9.12;42.53
74921;BME280;63483;47.384;8.860;2023-04-24T10:55:13;94138.94;;;9.23;42.59
74921;BME280;63483;47.384;8.860;2023-04-24T10:57:39;94134.81;;;9.14;41.65
74921;BME280;63483;47.384;8.860;2023-04-24T11:02:39;94125.59;;;9.33;41.04
74921;BME280;63483;47.384;8.860;2023-04-24T11:05:08;94120.03;;;9.43;41.53
74921;BME280;63483;47.384;8.860;2023-04-24T11:08:13;94123.91;;;9.47;41.05
74921;BME280;63483;47.384;8.860;2023-04-24T11:13:25;94119.16;;;9.36;40.51
74921;BME280;63483;47.384;8.860;2023-04-24T11:16:14;94128.72;;;9.43;40.42
74921;BME280;63483;47.384;8.860;2023-04-24T11:18:41;94126.72;;;9.45;40.08
74921;BME280;63483;47.384;8.860;2023-04-24T11:21:16;94131.66;;;9.55;39.96
74921;BME280;63483;47.384;8.860;2023-04-24T11:23:42;94125.28;;;9.64;39.23
74921;BME280;63483;47.384;8.860;2023-04-24T11:26:12;94135.56;;;9.66;40.00
74921;BME280;63483;47.384;8.860;2023-04-24T11:28:44;94140.72;;;9.59;38.79
74921;BME280;63483;47.384;8.860;2023-04-24T11:31:35;94137.28;;;9.59;38.17
74921;BME280;63483;47.384;8.860;2023-04-24T11:34:09;94133.38;;;9.48;38.59
74921;BME280;63483;47.384;8.860;2023-04-24T11:36:36;94135.25;;;9.54;38.13
74921;BME280;63483;47.384;8.860;2023-04-24T11:39:01;94131.97;;;9.52;38.78
74921;BME280;63483;47.384;8.860;2023-04-24T11:41:28;94132.88;;;9.59;38.15
74921;BME280;63483;47.384;8.860;2023-04-24T11:43:54;94130.53;;;9.64;39.21
74921;BME280;63483;47.384;8.860;2023-04-24T11:46:21;94136.34;;;9.66;39.17
74921;BME280;63483;47.384;8.860;2023-04-24T11:48:47;94138.09;;;9.59;39.20
74921;BME280;63483;47.384;8.860;2023-04-24T11:51:13;94144.94;;;9.60;38.95
74921;BME280;63483;47.384;8.860;2023-04-24T11:53:39;94151.22;;;9.44;39.49
74921;BME280;63483;47.384;8.860;2023-04-24T11:56:04;94145.78;;;9.24;38.88
74921;BME280;63483;47.384;8.860;2023-04-24T11:58:35;94143.13;;;9.39;40.98
74921;BME280;63483;47.384;8.860;2023-04-24T12:01:01;94142.94;;;9.62;42.20
74921;BME280;63483;47.384;8.860;2023-04-24T12:03:26;94141.03;;;9.71;39.22
74921;BME280;63483;47.384;8.860;2023-04-24T12:05:52;94133.63;;;9.53;40.47
74921;BME280;63483;47.384;8.860;2023-04-24T12:08:27;94146.72;;;9.75;39.51
74921;BME280;63483;47.384;8.860;2023-04-24T12:10:53;94134.03;;;9.93;40.93
74921;BME280;63483;47.384;8.860;2023-04-24T12:13:18;94149.19;;;9.83;40.01
74921;BME280;63483;47.384;8.860;2023-04-24T12:15:44;94143.94;;;9.83;39.59
74921;BME280;63483;47.384;8.860;2023-04-24T12:18:11;94134.56;;;10.10;39.02
74921;BME280;63483;47.384;8.860;2023-04-24T12:20:37;94142.47;;;10.45;39.85
74921;BME280;63483;47.384;8.860;2023-04-24T12:23:03;94138.53;;;10.56;39.82
74921;BME280;63483;47.384;8.860;2023-04-24T12:25:30;94151.44;;;10.64;38.10
74921;BME280;63483;47.384;8.860;2023-04-24T12:30:28;94149.38;;;10.53;37.76
74921;BME280;63483;47.384;8.860;2023-04-24T12:32:54;94150.31;;;10.73;37.37
74921;BME280;63483;47.384;8.860;2023-04-24T12:35:23;94151.50;;;10.71;36.58
74921;BME280;63483;47.384;8.860;2023-04-24T12:37:49;94156.47;;;10.59;36.57
74921;BME280;63483;47.384;8.860;2023-04-24T12:40:16;94143.28;;;10.81;38.32
74921;BME280;63483;47.384;8.860;2023-04-24T12:42:44;94139.06;;;10.80;36.85
74921;BME280;63483;47.384;8.860;2023-04-24T12:45:09;94154.41;;;10.83;37.33
74921;BME280;63483;47.384;8.860;2023-04-24T12:47:37;94129.47;;;10.30;36.86
74921;BME280;63483;47.384;8.860;2023-04-24T12:50:03;94145.28;;;10.44;36.24
74921;BME280;63483;47.384;8.860;2023-04-24T12:52:29;94144.22;;;10.66;35.93
74921;BME280;63483;47.384;8.860;2023-04-24T12:54:56;94137.59;;;10.70;35.90
74921;BME280;63483;47.384;8.860;2023-04-24T12:57:23;94133.91;;;10.93;35.83
74921;BME280;63483;47.384;8.860;2023-04-24T12:59:49;94152.00;;;10.88;36.18
74921;BME280;63483;47.384;8.860;2023-04-24T13:02:14;94141.16;;;10.91;36.23
74921;BME280;63483;47.384;8.860;2023-04-24T13:04:44;94141.16;;;10.91;35.82
74921;BME280;63483;47.384;8.860;2023-04-24T13:07:09;94140.50;;;10.54;35.93
74921;BME280;63483;47.384;8.860;2023-04-24T13:09:34;94142.06;;;10.42;35.91
74921;BME280;63483;47.384;8.860;2023-04-24T13:12:00;94141.44;;;10.74;35.99
74921;BME280;63483;47.384;8.860;2023-04-24T13:14:26;94147.13;;;10.85;37.07
74921;BME280;63483;47.384;8.860;2023-04-24T13:16:51;94149.56;;;10.23;36.96